Impacts TAF Board INFO
FOR SITUATIONAL AWARENESS. NOT TO BE USED FOR FLIGHT PLANNING PURPOSES.
IDs:

KMEM - Memphis Intl, TN, US

Issued at 1738 UTC 23 Jun 2018
Updated at 1916 UTC 23 Jun 2018
Potential Impact None Slight Moderate High
Time1854Z 23/20Z 23/21Z 23/22Z 23/23Z 24/00Z 24/01Z 24/02Z 24/03Z 24/04Z 24/05Z 24/06Z 24/07Z 24/08Z>>
Type OBS PRVL PRVL PRVL PRVL PRVL PRVL PRVL PRVL PRVL PRVL PRVL PRVL PRVL
VIS 10 >6 >6 >6 >6 >6 >6 >6 >6 >6 >6 >6 >6 >6
CIG -- 250 150 150 150 150 40 40 40 40 40 40 40 40
Cover SCT BKN BKN BKN BKN BKN BKN BKN BKN BKN BKN BKN BKN BKN
FltCat VFR VFR VFR VFR VFR VFR VFR VFR VFR VFR VFR VFR VFR VFR
WX -- -- VCTS VCTS VCTS VCTS VCTS VCTS VCTS VCTS VCTS VCTS VCTS VCTS
WDir 200 210 220 220 220 220 220 220 220 220 220 220 220 220
WSpd 7 10 10 10 10 10 8 8 8 8 8 8 8 8
WGst -- 18 18 18 18 18 -- -- -- -- -- -- -- --

Raw TAF
KMEM 231738Z 2318/2424 21010G18KT P6SM SCT025 BKN250
  FM232100 22010G18KT P6SM VCTS SCT040CB BKN150
  FM240100 22008KT P6SM VCTS BKN040CB BKN100
  FM240900 21008KT P6SM VCTS BKN015CB BKN100
  FM241600 21010KT P6SM VCTS SCT040CB BKN150


Raw METAR
KMEM 231854Z 20007KT 10SM FEW030 SCT200 30/22 A2983 RMK AO2 SLP096 T03000222 $
KMEM 231754Z 23007KT 10SM FEW020 SCT200 29/22 A2986 RMK AO2 SLP105 60066 T02940222 10294 20222 51029 $
KMEM 231654Z 20010G16KT 10SM FEW013 SCT200 27/23 A2985 RMK AO2 SLP102 T02720233 $

METAR Board
Radar Display
Forecast Discussion

FOR SITUATIONAL AWARENESS. NOT TO BE USED FOR FLIGHT PLANNING PURPOSES.